Time;durP1;ratioP1;P1;durP2;ratioP2;P2;SDS_P1;SDS_P2;PMS_P1;PMS_P2;Temp;Humidity;BMP_temperature;BMP_pressure;BME280_temperature;BME280_humidity;BME280_pressure;Samples;Min_cycle;Max_cycle;Signal;HPM_P1;HPM_P2
2021/09/21 00:01:23;;;;;;;0.60;0.60;;;11.90;98.00;;;;;;5069516;28;20754;-66
2021/09/21 00:03:50;;;;;;;0.80;0.77;;;11.90;98.00;;;;;;5070121;28;20206;-66
2021/09/21 00:06:17;;;;;;;0.80;0.80;;;11.90;98.10;;;;;;5071171;28;20224;-66
2021/09/21 00:08:44;;;;;;;0.70;0.70;;;11.80;98.20;;;;;;5070400;28;20677;-66
2021/09/21 00:11:13;;;;;;;0.67;0.67;;;11.90;98.30;;;;;;5069613;28;20204;-67
2021/09/21 00:13:39;;;;;;;0.70;0.70;;;11.90;98.30;;;;;;5068410;28;20557;-66
2021/09/21 00:16:06;;;;;;;0.60;0.60;;;11.90;98.30;;;;;;5069555;28;20229;-66
2021/09/21 00:18:34;;;;;;;0.80;0.80;;;11.90;98.30;;;;;;5069926;28;20664;-66
2021/09/21 00:21:01;;;;;;;0.70;0.70;;;11.90;98.30;;;;;;5070383;28;20189;-66
2021/09/21 00:23:29;;;;;;;0.70;0.70;;;12.00;98.40;;;;;;5069083;28;20642;-66
2021/09/21 00:25:56;;;;;;;0.70;0.70;;;12.00;98.40;;;;;;5073149;28;20218;-66
2021/09/21 00:28:25;;;;;;;0.80;0.80;;;12.00;98.40;;;;;;5057558;28;20628;-66
2021/09/21 00:30:53;;;;;;;0.60;0.60;;;12.00;98.40;;;;;;5068974;28;20776;-66
2021/09/21 00:33:23;;;;;;;0.60;0.60;;;12.00;98.40;;;;;;5070619;28;20283;-66
2021/09/21 00:35:52;;;;;;;0.93;0.70;;;12.00;98.40;;;;;;5069665;28;20208;-66
2021/09/21 00:38:22;;;;;;;0.70;0.70;;;12.10;98.40;;;;;;5068396;28;20268;-67
2021/09/21 00:40:50;;;;;;;0.73;0.73;;;12.00;98.30;;;;;;5069590;28;20367;-66
2021/09/21 00:43:22;;;;;;;0.83;0.50;;;12.00;98.40;;;;;;5067579;28;20189;-66
2021/09/21 00:45:52;;;;;;;0.63;0.63;;;12.10;98.40;;;;;;5069216;28;20235;-67
2021/09/21 00:48:19;;;;;;;0.63;0.63;;;12.00;98.40;;;;;;5070153;28;20203;-66
2021/09/21 00:50:47;;;;;;;0.93;0.90;;;12.00;98.40;;;;;;5067786;28;20201;-66
2021/09/21 00:53:14;;;;;;;0.83;0.83;;;12.00;98.30;;;;;;5070364;28;20201;-66
2021/09/21 00:55:41;;;;;;;0.70;0.70;;;12.00;98.30;;;;;;5076215;28;20742;-66
2021/09/21 00:58:08;;;;;;;0.63;0.63;;;12.00;98.20;;;;;;5069093;28;20203;-66
2021/09/21 01:00:35;;;;;;;0.60;0.60;;;11.90;98.20;;;;;;5068273;28;20572;-66
2021/09/21 01:03:04;;;;;;;0.70;0.70;;;12.00;98.20;;;;;;5077059;28;20287;-66
2021/09/21 01:05:32;;;;;;;1.03;0.90;;;11.90;98.10;;;;;;5070262;28;20221;-66
2021/09/21 01:07:59;;;;;;;1.10;1.00;;;11.90;98.00;;;;;;5070389;28;20734;-66
2021/09/21 01:10:29;;;;;;;1.00;1.00;;;11.90;98.00;;;;;;5068801;28;20212;-66
2021/09/21 01:12:57;;;;;;;1.00;1.00;;;11.90;98.00;;;;;;5070216;28;20207;-66
2021/09/21 01:15:24;;;;;;;1.30;1.20;;;11.80;98.00;;;;;;5068897;28;20201;-66
2021/09/21 01:17:52;;;;;;;1.00;1.00;;;11.80;98.00;;;;;;5068402;28;20292;-65
2021/09/21 01:20:20;;;;;;;1.00;1.00;;;11.80;98.00;;;;;;5068059;28;20301;-66
2021/09/21 01:22:49;;;;;;;2.10;1.20;;;11.70;98.00;;;;;;5068733;28;20202;-66
2021/09/21 01:25:16;;;;;;;1.77;1.10;;;11.80;98.00;;;;;;5062540;28;20227;-66
2021/09/21 01:27:43;;;;;;;1.30;1.20;;;11.70;98.00;;;;;;5069370;28;20208;-66
2021/09/21 01:30:12;;;;;;;2.07;1.37;;;11.70;98.00;;;;;;5066785;28;20204;-66
2021/09/21 01:32:39;;;;;;;1.20;1.07;;;11.70;98.00;;;;;;5067821;28;20214;-66
2021/09/21 01:35:08;;;;;;;0.70;0.70;;;11.60;98.00;;;;;;5067823;28;20634;-66
2021/09/21 01:37:35;;;;;;;0.70;0.70;;;11.60;97.90;;;;;;5067879;28;20200;-65
2021/09/21 01:40:04;;;;;;;0.80;0.80;;;11.60;97.90;;;;;;5067859;28;20203;-66
2021/09/21 01:42:31;;;;;;;0.80;0.80;;;11.60;97.90;;;;;;5068977;28;20197;-66
2021/09/21 01:44:58;;;;;;;0.77;0.77;;;11.60;97.90;;;;;;5067868;28;20604;-66
2021/09/21 01:47:25;;;;;;;0.60;0.60;;;11.60;97.90;;;;;;5067871;28;20782;-66
2021/09/21 01:50:10;;;;;;;0.70;0.70;;;11.60;97.90;;;;;;5068389;28;20193;-66
2021/09/21 01:52:41;;;;;;;0.70;0.70;;;11.60;97.90;;;;;;5066735;28;20215;-66
2021/09/21 01:55:13;;;;;;;0.90;0.90;;;11.50;97.80;;;;;;5068132;28;20246;-66
2021/09/21 02:00:25;;;;;;;0.60;0.60;;;11.40;97.80;;;;;;5065730;28;20295;-66
2021/09/21 02:02:54;;;;;;;0.70;0.70;;;11.40;97.80;;;;;;5068067;28;20697;-66
2021/09/21 02:05:21;;;;;;;0.73;0.73;;;11.50;97.80;;;;;;5066385;28;20336;-66
2021/09/21 02:07:48;;;;;;;0.60;0.60;;;11.40;97.70;;;;;;5068918;28;20196;-66
2021/09/21 02:10:20;;;;;;;1.57;1.10;;;11.40;97.70;;;;;;5067711;28;20197;-66
2021/09/21 02:12:46;;;;;;;0.70;0.70;;;11.40;97.60;;;;;;5067132;28;20205;-66
2021/09/21 02:15:13;;;;;;;0.80;0.80;;;11.40;97.60;;;;;;5067548;28;20840;-66
2021/09/21 02:17:40;;;;;;;0.80;0.80;;;11.40;97.50;;;;;;5069010;28;20268;-66
2021/09/21 02:20:08;;;;;;;0.70;0.70;;;11.40;97.50;;;;;;5066578;28;20206;-66
2021/09/21 02:22:35;;;;;;;0.87;0.87;;;11.40;97.50;;;;;;5069025;28;20602;-66
2021/09/21 02:25:02;;;;;;;0.60;0.60;;;11.40;97.70;;;;;;5068000;28;20783;-66
2021/09/21 02:27:30;;;;;;;0.60;0.60;;;11.30;97.50;;;;;;5057876;28;20250;-66
2021/09/21 02:29:57;;;;;;;0.63;0.63;;;11.30;97.50;;;;;;5064340;28;20204;-66
2021/09/21 02:32:24;;;;;;;0.70;0.70;;;11.30;97.50;;;;;;5067073;28;20210;-66
2021/09/21 02:34:51;;;;;;;0.70;0.70;;;11.40;97.50;;;;;;5068006;28;20225;-66
2021/09/21 02:37:18;;;;;;;0.70;0.70;;;11.30;97.50;;;;;;5065974;28;20600;-66
2021/09/21 02:39:45;;;;;;;0.50;0.50;;;11.30;97.50;;;;;;5063959;28;20383;-66
2021/09/21 02:42:12;;;;;;;0.70;0.70;;;11.30;97.50;;;;;;5068035;28;20319;-66
2021/09/21 02:44:40;;;;;;;0.73;0.73;;;11.30;97.50;;;;;;5068961;28;20188;-66
2021/09/21 02:47:07;;;;;;;0.73;0.70;;;11.20;97.50;;;;;;5076281;28;20702;-66
2021/09/21 02:49:35;;;;;;;0.60;0.60;;;11.30;97.50;;;;;;5065807;28;20291;-66
2021/09/21 02:52:02;;;;;;;0.70;0.70;;;11.20;97.50;;;;;;5068203;28;20201;-67
2021/09/21 02:54:28;;;;;;;0.60;0.60;;;11.20;97.50;;;;;;5076376;28;20231;-66
2021/09/21 02:56:55;;;;;;;0.50;0.50;;;11.20;97.50;;;;;;5066585;28;20199;-66
2021/09/21 02:59:22;;;;;;;0.50;0.50;;;11.20;97.50;;;;;;5065182;28;20197;-66
2021/09/21 03:01:51;;;;;;;0.60;0.60;;;11.20;97.50;;;;;;5066730;28;20215;-65
2021/09/21 03:04:22;;;;;;;0.80;0.70;;;11.20;97.60;;;;;;5066353;28;20207;-66
2021/09/21 03:06:52;;;;;;;0.60;0.60;;;11.20;97.60;;;;;;5072785;28;20292;-66
2021/09/21 03:09:25;;;;;;;0.87;0.80;;;11.20;97.60;;;;;;5070682;28;20236;-66
2021/09/21 03:11:57;;;;;;;0.67;0.67;;;11.20;97.70;;;;;;5070583;28;20685;-66
2021/09/21 03:17:17;;;;;;;0.40;0.40;;;11.10;97.80;;;;;;5072527;28;20190;-67
2021/09/21 03:19:44;;;;;;;0.50;0.50;;;11.20;97.90;;;;;;5077929;28;20616;-66
2021/09/21 03:22:11;;;;;;;0.60;0.60;;;11.10;97.90;;;;;;5075992;28;20227;-66
2021/09/21 03:24:38;;;;;;;0.60;0.60;;;11.10;98.00;;;;;;5069905;28;20208;-67
2021/09/21 03:27:05;;;;;;;0.83;0.80;;;11.10;98.00;;;;;;5070164;28;20239;-66
2021/09/21 03:29:32;;;;;;;0.70;0.70;;;11.10;98.10;;;;;;5068467;28;20569;-66
2021/09/21 03:31:59;;;;;;;0.60;0.60;;;11.00;98.10;;;;;;5057763;28;20203;-66
2021/09/21 03:34:28;;;;;;;0.50;0.50;;;11.20;98.30;;;;;;5071605;28;20369;-66
2021/09/21 03:36:55;;;;;;;0.40;0.40;;;11.00;98.30;;;;;;5059781;28;20283;-66
2021/09/21 03:39:22;;;;;;;1.80;0.57;;;11.00;98.30;;;;;;5071223;28;20212;-66
2021/09/21 03:41:49;;;;;;;0.43;0.43;;;11.00;98.40;;;;;;5059136;28;20259;-66
2021/09/21 03:44:16;;;;;;;0.60;0.60;;;11.00;98.50;;;;;;5068460;28;20564;-66
2021/09/21 03:46:43;;;;;;;0.60;0.50;;;11.00;98.50;;;;;;5060641;28;20572;-65
2021/09/21 03:49:10;;;;;;;0.50;0.50;;;11.00;98.60;;;;;;5069461;28;20208;-66
2021/09/21 03:51:38;;;;;;;0.60;0.60;;;10.90;98.60;;;;;;5070566;28;20258;-65
2021/09/21 03:54:08;;;;;;;0.73;0.73;;;10.90;98.70;;;;;;5069390;28;20427;-66
2021/09/21 03:56:36;;;;;;;0.50;0.50;;;11.00;98.80;;;;;;5078464;28;20200;-65
2021/09/21 03:59:03;;;;;;;0.60;0.60;;;10.90;98.80;;;;;;5070040;28;20568;-65
2021/09/21 04:01:30;;;;;;;0.60;0.60;;;10.90;98.80;;;;;;5070870;28;20205;-65
2021/09/21 04:03:57;;;;;;;0.53;0.53;;;10.90;98.90;;;;;;5068751;28;20205;-66
2021/09/21 04:06:24;;;;;;;0.50;0.50;;;10.90;98.90;;;;;;5071266;28;20236;-66
2021/09/21 04:08:53;;;;;;;0.40;0.40;;;10.90;98.90;;;;;;5069642;28;20203;-65
2021/09/21 04:11:20;;;;;;;0.67;0.63;;;10.80;99.00;;;;;;5070043;28;20243;-65
2021/09/21 04:13:48;;;;;;;0.60;0.60;;;10.90;99.10;;;;;;5067233;28;20754;-65
2021/09/21 04:16:15;;;;;;;0.50;0.50;;;10.80;99.00;;;;;;5071051;28;20196;-66
2021/09/21 04:18:42;;;;;;;0.60;0.60;;;10.80;99.00;;;;;;5069756;28;20205;-65
2021/09/21 04:21:09;;;;;;;0.50;0.50;;;10.90;99.10;;;;;;5070511;28;20230;-65
2021/09/21 04:23:39;;;;;;;0.60;0.60;;;10.80;99.10;;;;;;5070280;28;20196;-65
2021/09/21 04:26:07;;;;;;;0.63;0.63;;;10.90;99.10;;;;;;5070174;28;20191;-66
2021/09/21 04:28:34;;;;;;;0.60;0.60;;;10.90;99.20;;;;;;5069107;28;20679;-65
2021/09/21 04:31:08;;;;;;;0.60;0.60;;;10.90;99.20;;;;;;5069692;28;20201;-65
2021/09/21 04:33:37;;;;;;;1.90;0.57;;;10.90;99.20;;;;;;5081348;28;20272;-66
2021/09/21 04:36:04;;;;;;;0.60;0.60;;;10.90;99.20;;;;;;5071366;28;20198;-65
2021/09/21 04:38:31;;;;;;;0.40;0.40;;;10.90;99.20;;;;;;5077659;28;20214;-65
2021/09/21 04:40:58;;;;;;;0.60;0.60;;;10.90;99.20;;;;;;5069962;28;20540;-66
2021/09/21 04:43:26;;;;;;;0.60;0.60;;;10.90;99.20;;;;;;5068645;28;20700;-66
2021/09/21 04:45:53;;;;;;;0.67;0.67;;;10.90;99.20;;;;;;5070359;28;20193;-66
2021/09/21 04:48:20;;;;;;;0.50;0.50;;;11.00;99.30;;;;;;5070320;28;20331;-65
2021/09/21 04:50:47;;;;;;;0.87;0.87;;;11.00;99.60;;;;;;5070048;28;20200;-66
2021/09/21 04:53:14;;;;;;;0.70;0.70;;;11.00;99.30;;;;;;5069727;28;20212;-66
2021/09/21 04:55:41;;;;;;;0.60;0.60;;;11.00;99.30;;;;;;5067435;28;20693;-65
2021/09/21 04:58:09;;;;;;;0.67;0.67;;;11.00;99.30;;;;;;5068947;28;20188;-66
2021/09/21 05:00:37;;;;;;;0.60;0.60;;;11.00;99.30;;;;;;5068354;28;20244;-66
2021/09/21 05:03:04;;;;;;;0.60;0.60;;;11.00;99.30;;;;;;5067875;28;20664;-65
2021/09/21 05:05:31;;;;;;;0.77;0.77;;;11.00;99.40;;;;;;5069953;28;20195;-65
2021/09/21 05:07:59;;;;;;;0.50;0.50;;;11.10;99.50;;;;;;5070260;28;20224;-66
2021/09/21 05:10:26;;;;;;;0.70;0.70;;;11.10;99.40;;;;;;5069080;28;20411;-66
2021/09/21 05:12:53;;;;;;;0.83;0.83;;;11.20;99.40;;;;;;5068552;28;20197;-65
2021/09/21 05:15:20;;;;;;;0.60;0.60;;;11.30;99.40;;;;;;5066602;28;20216;-66
2021/09/21 05:17:49;;;;;;;0.60;0.60;;;11.40;99.30;;;;;;5069007;28;20289;-66
2021/09/21 05:20:16;;;;;;;1.10;1.00;;;11.50;99.30;;;;;;5068569;28;20195;-65
2021/09/21 05:22:43;;;;;;;0.70;0.70;;;11.60;99.20;;;;;;5068160;28;20201;-66
2021/09/21 05:25:11;;;;;;;0.60;0.60;;;11.60;99.10;;;;;;5063429;28;20278;-65
2021/09/21 05:27:38;;;;;;;0.60;0.60;;;11.70;99.00;;;;;;5075077;28;20213;-66
2021/09/21 05:30:06;;;;;;;0.50;0.50;;;11.70;98.90;;;;;;5068229;28;20204;-66
2021/09/21 05:32:33;;;;;;;0.67;0.47;;;11.80;98.80;;;;;;5069654;28;20651;-65
2021/09/21 05:35:02;;;;;;;0.80;0.80;;;11.80;98.60;;;;;;5067713;28;20208;-66
2021/09/21 05:37:30;;;;;;;0.67;0.67;;;11.80;98.90;;;;;;5069998;28;20678;-66
2021/09/21 05:39:57;;;;;;;0.83;0.73;;;11.90;98.50;;;;;;5080403;28;20254;-66
2021/09/21 05:42:24;;;;;;;1.23;0.90;;;12.00;98.50;;;;;;5069115;28;20192;-65
2021/09/21 05:44:53;;;;;;;0.90;0.90;;;11.90;98.40;;;;;;5065697;28;20204;-65
2021/09/21 05:47:20;;;;;;;2.87;0.90;;;12.00;98.40;;;;;;5069893;28;20246;-65
2021/09/21 05:49:47;;;;;;;0.90;0.83;;;12.10;98.40;;;;;;5066982;28;20204;-65
2021/09/21 05:52:15;;;;;;;1.73;0.90;;;12.10;98.30;;;;;;5068696;28;20200;-66
2021/09/21 05:54:42;;;;;;;0.87;0.87;;;12.10;98.20;;;;;;5066145;28;20273;-66
2021/09/21 05:57:09;;;;;;;0.67;0.67;;;12.20;98.30;;;;;;5067253;28;20302;-65
2021/09/21 05:59:36;;;;;;;0.60;0.60;;;12.20;98.30;;;;;;5067483;28;20206;-66
2021/09/21 06:02:03;;;;;;;3.10;1.00;;;12.20;98.20;;;;;;5065295;28;20627;-65
2021/09/21 06:04:30;;;;;;;0.80;0.80;;;12.20;98.20;;;;;;5067229;28;20211;-66
2021/09/21 06:06:57;;;;;;;0.87;0.80;;;12.30;98.20;;;;;;5067748;28;20248;-65
2021/09/21 06:09:25;;;;;;;0.80;0.80;;;12.30;98.20;;;;;;5067528;28;20476;-65
2021/09/21 06:11:52;;;;;;;0.80;0.80;;;12.40;98.10;;;;;;5059199;28;20204;-65
2021/09/21 06:14:19;;;;;;;0.90;0.90;;;12.50;98.10;;;;;;5073461;28;20219;-65
2021/09/21 06:16:46;;;;;;;0.83;0.83;;;12.60;98.00;;;;;;5069917;28;20197;-66
2021/09/21 06:19:13;;;;;;;1.10;1.00;;;12.80;98.30;;;;;;5065050;28;20267;-66
2021/09/21 06:21:40;;;;;;;0.80;0.80;;;13.20;97.80;;;;;;5063058;28;20204;-66
2021/09/21 06:24:07;;;;;;;1.20;1.10;;;14.20;97.50;;;;;;5060043;28;20206;-65
2021/09/21 06:26:36;;;;;;;0.60;0.60;;;15.50;96.30;;;;;;5056085;28;20201;-64
2021/09/21 06:29:03;;;;;;;3.43;1.00;;;16.70;94.80;;;;;;5064504;28;20322;-66
2021/09/21 06:31:32;;;;;;;0.90;0.90;;;17.70;93.80;;;;;;5071601;28;21040;-65
2021/09/21 06:33:59;;;;;;;1.17;1.07;;;18.20;92.30;;;;;;5064753;28;20197;-66
2021/09/21 06:36:26;;;;;;;1.37;1.13;;;19.00;91.30;;;;;;5062862;28;20213;-65
2021/09/21 06:38:56;;;;;;;1.10;1.00;;;20.00;89.70;;;;;;5058828;28;20199;-66
2021/09/21 06:41:23;;;;;;;0.88;0.88;;;20.80;85.70;;;;;;5066094;28;20670;-66
2021/09/21 06:43:52;;;;;;;0.80;0.80;;;21.90;82.40;;;;;;5067190;28;20193;-66
2021/09/21 06:46:19;;;;;;;0.82;0.82;;;22.80;77.80;;;;;;5063568;28;20272;-66
2021/09/21 06:48:46;;;;;;;0.90;0.90;;;23.50;74.80;;;;;;5064859;28;20330;-66
2021/09/21 06:51:13;;;;;;;1.13;0.80;;;23.70;72.00;;;;;;5074046;28;20205;-66
2021/09/21 06:53:40;;;;;;;0.70;0.70;;;24.10;70.20;;;;;;5068100;28;20434;-66
2021/09/21 06:56:07;;;;;;;1.17;1.05;;;24.70;66.50;;;;;;5061861;28;20236;-66
2021/09/21 06:58:35;;;;;;;1.20;1.10;;;25.70;63.00;;;;;;5067342;28;20193;-66
2021/09/21 07:01:04;;;;;;;1.05;1.00;;;26.40;60.50;;;;;;5075733;28;20203;-66
2021/09/21 07:03:30;;;;;;;1.10;1.00;;;27.50;57.00;;;;;;5062345;28;20649;-66
2021/09/21 07:05:58;;;;;;;1.75;1.30;;;28.20;54.60;;;;;;5057770;28;20570;-66
2021/09/21 07:08:25;;;;;;;1.05;0.98;;;27.60;52.00;;;;;;5060736;28;20219;-66
2021/09/21 07:10:52;;;;;;;1.50;1.40;;;26.70;52.80;;;;;;5077707;28;20795;-66
2021/09/21 07:13:19;;;;;;;1.42;1.35;;;25.30;52.00;;;;;;5061114;28;20193;-66
2021/09/21 07:15:46;;;;;;;1.63;1.08;;;24.20;53.40;;;;;;5078917;28;20203;-66
2021/09/21 07:18:14;;;;;;;1.92;1.00;;;23.30;54.20;;;;;;5063268;28;20301;-66
2021/09/21 07:20:41;;;;;;;1.77;1.20;;;22.60;55.00;;;;;;5064277;28;20652;-66
2021/09/21 07:23:08;;;;;;;1.05;1.05;;;22.00;56.00;;;;;;5064334;28;20201;-66
2021/09/21 07:25:35;;;;;;;1.60;1.30;;;21.50;56.60;;;;;;5061689;28;20185;-65
2021/09/21 07:28:03;;;;;;;1.57;1.47;;;21.10;57.20;;;;;;5075867;28;20458;-66
2021/09/21 07:30:30;;;;;;;1.65;1.55;;;20.80;57.80;;;;;;5064168;28;20907;-66
2021/09/21 07:32:57;;;;;;;3.53;1.83;;;20.50;58.30;;;;;;5066569;28;20185;-65
2021/09/21 07:35:26;;;;;;;1.80;1.70;;;20.40;58.70;;;;;;5068388;28;20451;-66
2021/09/21 07:37:54;;;;;;;1.83;1.60;;;20.30;59.10;;;;;;5066879;28;20660;-66
2021/09/21 07:40:21;;;;;;;1.42;1.33;;;20.20;59.30;;;;;;5062739;28;20212;-66
2021/09/21 07:42:48;;;;;;;1.10;1.10;;;20.20;59.50;;;;;;5060476;28;20219;-66
2021/09/21 07:45:16;;;;;;;1.15;1.10;;;20.10;59.60;;;;;;5059483;28;20209;-66
2021/09/21 07:47:44;;;;;;;1.23;1.13;;;19.90;59.60;;;;;;5067187;28;21021;-66
2021/09/21 07:50:12;;;;;;;1.00;0.90;;;19.80;59.90;;;;;;5067877;28;20221;-65
2021/09/21 07:52:40;;;;;;;0.95;0.95;;;19.60;60.20;;;;;;5072968;28;20288;-66
2021/09/21 07:55:08;;;;;;;1.60;1.10;;;19.60;60.40;;;;;;5067892;28;20487;-65
2021/09/21 07:57:36;;;;;;;1.25;1.15;;;19.50;60.10;;;;;;5067614;28;20182;-65
2021/09/21 08:00:05;;;;;;;2.78;1.08;;;19.60;60.40;;;;;;5066697;28;20313;-65
2021/09/21 08:02:39;;;;;;;1.45;1.35;;;19.60;61.10;;;;;;5069111;28;20204;-65
2021/09/21 08:05:07;;;;;;;2.05;1.20;;;19.80;60.00;;;;;;5064083;28;20802;-66
2021/09/21 08:07:34;;;;;;;0.95;0.95;;;19.70;59.30;;;;;;5070198;28;20266;-65
2021/09/21 08:10:04;;;;;;;1.20;1.10;;;19.60;59.70;;;;;;5065871;28;20201;-65
2021/09/21 08:12:32;;;;;;;1.42;1.33;;;19.60;59.90;;;;;;5063838;28;20633;-66
2021/09/21 08:14:59;;;;;;;0.90;0.90;;;19.60;59.70;;;;;;5067830;28;20220;-66
2021/09/21 08:17:28;;;;;;;1.55;1.00;;;19.70;59.70;;;;;;5068291;28;20194;-66
2021/09/21 08:19:58;;;;;;;1.25;1.15;;;20.00;59.20;;;;;;5069116;28;20195;-66
2021/09/21 08:22:26;;;;;;;2.10;1.45;;;20.20;58.90;;;;;;5069115;28;20679;-66
2021/09/21 08:24:54;;;;;;;2.08;1.23;;;20.50;57.60;;;;;;5067792;28;20201;-66
2021/09/21 08:27:23;;;;;;;1.58;1.33;;;20.50;57.00;;;;;;5065648;28;20197;-65
2021/09/21 08:29:51;;;;;;;0.90;0.90;;;20.50;56.40;;;;;;5063373;28;20189;-67
2021/09/21 08:32:18;;;;;;;1.52;1.15;;;20.70;56.30;;;;;;5080363;28;20534;-66
2021/09/21 08:34:45;;;;;;;1.63;1.20;;;20.80;55.80;;;;;;5064439;28;20939;-66
2021/09/21 08:37:12;;;;;;;4.10;1.30;;;21.00;55.50;;;;;;5068851;28;20651;-66
2021/09/21 08:39:39;;;;;;;2.72;1.40;;;21.60;55.50;;;;;;5090937;28;20208;-66
2021/09/21 08:42:06;;;;;;;1.25;1.17;;;23.40;53.00;;;;;;5072479;28;20208;-66
2021/09/21 08:44:37;;;;;;;3.97;1.20;;;25.50;50.30;;;;;;5068200;28;20296;-66
2021/09/21 08:47:04;;;;;;;1.00;1.00;;;27.50;46.70;;;;;;5064447;28;20288;-66
2021/09/21 08:49:31;;;;;;;2.90;1.23;;;29.20;44.40;;;;;;5065453;28;20214;-66
2021/09/21 08:51:59;;;;;;;2.53;2.33;;;31.10;42.10;;;;;;5076691;28;20295;-66
2021/09/21 08:54:26;;;;;;;1.83;1.60;;;32.70;39.50;;;;;;5068094;28;21325;-66
2021/09/21 08:56:54;;;;;;;2.00;1.20;;;34.10;36.20;;;;;;5066769;28;20197;-66
2021/09/21 08:59:30;;;;;;;1.75;1.58;;;34.60;33.00;;;;;;5067331;28;20225;-66
2021/09/21 09:02:04;;;;;;;1.27;1.27;;;35.20;32.20;;;;;;5077080;28;20507;-66
2021/09/21 09:04:31;;;;;;;1.35;1.35;;;35.10;32.00;;;;;;5067383;28;20298;-66
2021/09/21 09:06:59;;;;;;;1.70;1.60;;;36.10;32.10;;;;;;5069329;28;20208;-66
2021/09/21 09:09:31;;;;;;;3.25;1.60;;;37.20;31.00;;;;;;5066720;28;20227;-66
2021/09/21 09:12:00;;;;;;;1.35;1.10;;;38.30;29.60;;;;;;5064420;28;20657;-67
2021/09/21 09:14:29;;;;;;;3.03;1.45;;;39.00;27.00;;;;;;5071531;28;20671;-67
2021/09/21 09:16:59;;;;;;;1.00;1.00;;;39.30;26.00;;;;;;5062067;28;20287;-67
2021/09/21 09:19:31;;;;;;;2.63;1.20;;;39.00;26.50;;;;;;5071527;28;20197;-67
2021/09/21 09:22:06;;;;;;;1.10;1.10;;;39.20;26.00;;;;;;5065943;28;20185;-67
2021/09/21 09:24:33;;;;;;;1.20;1.20;;;39.30;25.10;;;;;;5068829;28;20193;-67
2021/09/21 09:27:00;;;;;;;1.10;1.10;;;38.70;25.70;;;;;;5064602;28;20208;-67
2021/09/21 09:29:27;;;;;;;1.33;1.23;;;37.60;26.30;;;;;;5058687;28;20228;-67
2021/09/21 09:32:02;;;;;;;2.67;1.13;;;36.10;26.90;;;;;;5062839;28;20224;-67
2021/09/21 09:34:29;;;;;;;1.38;1.27;;;34.90;27.20;;;;;;5061087;28;20335;-67
2021/09/21 09:36:58;;;;;;;1.23;1.13;;;33.20;27.40;;;;;;5062690;28;20244;-67
2021/09/21 09:39:28;;;;;;;1.65;1.35;;;31.80;28.70;;;;;;5066324;28;20906;-66
2021/09/21 09:41:57;;;;;;;1.42;1.20;;;30.60;29.00;;;;;;5066038;28;20610;-66
2021/09/21 09:44:26;;;;;;;1.20;1.10;;;29.40;29.30;;;;;;5065316;28;20217;-66
2021/09/21 09:46:55;;;;;;;1.10;0.98;;;28.10;30.00;;;;;;5062172;28;20438;-66
2021/09/21 09:49:26;;;;;;;1.80;1.10;;;27.10;31.30;;;;;;5063191;28;20438;-66
2021/09/21 09:51:56;;;;;;;1.15;1.05;;;26.40;32.10;;;;;;5060835;28;20844;-67
2021/09/21 09:54:23;;;;;;;1.05;1.05;;;25.60;32.80;;;;;;5065893;28;20693;-66
2021/09/21 09:56:50;;;;;;;4.30;0.93;;;25.00;33.80;;;;;;5065183;28;20271;-66
2021/09/21 09:59:18;;;;;;;0.90;0.90;;;24.70;34.70;;;;;;5061255;28;20284;-66
2021/09/21 10:01:46;;;;;;;3.05;1.13;;;24.90;35.00;;;;;;5074754;28;20200;-66
2021/09/21 10:04:13;;;;;;;0.93;0.93;;;25.30;34.70;;;;;;5062558;28;20203;-66
2021/09/21 10:06:43;;;;;;;1.92;1.20;;;25.20;34.60;;;;;;5067685;28;20193;-66
2021/09/21 10:09:11;;;;;;;1.17;1.00;;;24.90;35.00;;;;;;5058672;28;20543;-66
2021/09/21 10:11:40;;;;;;;1.17;1.10;;;24.60;35.40;;;;;;5065595;28;20185;-66
2021/09/21 10:14:07;;;;;;;1.10;1.10;;;24.30;35.90;;;;;;5061905;28;20616;-66
2021/09/21 10:16:34;;;;;;;1.02;1.00;;;24.20;36.30;;;;;;5059508;28;20208;-66
2021/09/21 10:19:03;;;;;;;0.80;0.80;;;24.10;37.00;;;;;;5065159;28;20189;-66
2021/09/21 10:21:32;;;;;;;1.30;1.20;;;24.00;37.10;;;;;;5068350;28;20463;-65
2021/09/21 10:24:04;;;;;;;1.80;1.30;;;23.80;37.30;;;;;;5076533;28;20932;-66
2021/09/21 10:26:32;;;;;;;0.98;0.98;;;23.40;37.70;;;;;;5063636;28;21020;-66
2021/09/21 10:28:59;;;;;;;2.45;1.10;;;23.30;38.10;;;;;;5065927;28;20243;-66
2021/09/21 10:31:28;;;;;;;1.33;1.20;;;23.30;38.50;;;;;;5067153;28;20193;-67
2021/09/21 10:33:56;;;;;;;1.65;1.55;;;23.30;38.50;;;;;;5065763;28;20204;-66
2021/09/21 10:36:29;;;;;;;3.03;2.33;;;23.40;38.80;;;;;;5068395;28;20197;-65
2021/09/21 10:38:59;;;;;;;2.75;2.55;;;23.60;38.90;;;;;;5057196;28;20197;-65
2021/09/21 10:41:28;;;;;;;2.75;2.55;;;24.00;39.00;;;;;;5061387;28;20205;-65
2021/09/21 10:44:00;;;;;;;2.10;2.00;;;24.30;38.70;;;;;;5059883;28;20196;-65
2021/09/21 10:46:28;;;;;;;3.30;1.92;;;24.50;38.60;;;;;;5065994;28;20205;-66
2021/09/21 10:49:01;;;;;;;1.95;1.30;;;24.70;38.70;;;;;;5067035;28;20955;-66
2021/09/21 10:51:29;;;;;;;1.20;1.20;;;24.60;38.70;;;;;;5060766;28;21390;-66
2021/09/21 10:54:04;;;;;;;1.10;1.10;;;24.60;38.70;;;;;;5064029;28;20459;-66
2021/09/21 10:56:39;;;;;;;1.40;1.30;;;24.60;38.90;;;;;;5064305;28;20385;-65
2021/09/21 10:59:15;;;;;;;1.25;1.15;;;24.60;38.90;;;;;;5062160;28;20272;-66
2021/09/21 11:01:47;;;;;;;2.83;1.95;;;24.50;39.00;;;;;;5060365;28;20234;-66
2021/09/21 11:04:14;;;;;;;2.30;2.10;;;24.20;39.20;;;;;;5065688;28;20208;-65
2021/09/21 11:06:44;;;;;;;1.75;1.65;;;23.90;39.20;;;;;;5063506;28;20195;-66
2021/09/21 11:09:11;;;;;;;1.83;1.73;;;23.60;39.50;;;;;;5064897;28;20232;-62
2021/09/21 11:11:39;;;;;;;1.52;1.40;;;23.40;39.80;;;;;;5063124;28;20283;-65
2021/09/21 11:14:06;;;;;;;1.83;1.73;;;23.10;40.10;;;;;;5061169;28;20303;-65
2021/09/21 11:16:33;;;;;;;3.30;3.00;;;22.80;40.50;;;;;;5065436;28;20193;-65
2021/09/21 11:19:05;;;;;;;9.68;6.35;;;22.50;40.70;;;;;;5066287;28;20422;-66
2021/09/21 11:21:32;;;;;;;3.83;2.50;;;22.30;41.20;;;;;;5068065;28;20699;-65
2021/09/21 11:23:59;;;;;;;2.90;1.80;;;22.00;41.10;;;;;;5064448;28;20250;-67
2021/09/21 11:26:26;;;;;;;1.38;1.27;;;21.70;41.20;;;;;;5060522;28;20425;-66
2021/09/21 11:28:55;;;;;;;2.25;1.30;;;21.30;41.50;;;;;;5072351;28;20223;-66
2021/09/21 11:31:22;;;;;;;1.10;1.00;;;21.00;41.80;;;;;;5071623;28;20193;-66
2021/09/21 11:33:53;;;;;;;1.23;1.17;;;20.80;42.30;;;;;;5072867;28;20677;-66
2021/09/21 11:36:20;;;;;;;1.27;1.17;;;20.70;42.70;;;;;;5071048;28;20254;-65
2021/09/21 11:38:49;;;;;;;1.00;1.00;;;20.60;43.00;;;;;;5066082;28;20661;-66
2021/09/21 11:41:18;;;;;;;1.00;1.00;;;20.50;43.10;;;;;;5073446;28;20204;-66
2021/09/21 11:43:46;;;;;;;1.88;1.38;;;20.40;43.10;;;;;;5068890;28;20197;-67
2021/09/21 11:46:15;;;;;;;1.30;1.20;;;20.30;43.30;;;;;;5069252;28;20608;-67
2021/09/21 11:48:42;;;;;;;2.30;1.38;;;20.20;43.70;;;;;;5064146;28;20223;-66
2021/09/21 11:51:09;;;;;;;1.35;1.00;;;20.10;43.70;;;;;;5067641;28;21781;-66
2021/09/21 11:53:41;;;;;;;1.40;1.10;;;20.00;43.90;;;;;;5067648;28;20212;-66
2021/09/21 11:56:10;;;;;;;1.58;1.48;;;19.80;44.10;;;;;;5072819;28;20232;-67
2021/09/21 11:58:37;;;;;;;1.95;1.50;;;19.50;44.20;;;;;;5070193;28;20195;-67
2021/09/21 12:01:05;;;;;;;1.00;1.00;;;19.30;44.10;;;;;;5065658;28;20434;-66
2021/09/21 12:03:34;;;;;;;1.70;1.30;;;19.10;44.20;;;;;;5065184;28;20886;-66
2021/09/21 12:06:03;;;;;;;1.20;1.10;;;19.00;44.00;;;;;;5069402;28;20491;-66
2021/09/21 12:08:33;;;;;;;1.45;1.20;;;19.10;44.10;;;;;;5060943;28;20261;-65
2021/09/21 12:11:06;;;;;;;1.35;1.10;;;18.90;44.00;;;;;;5069635;28;20221;-66
2021/09/21 12:13:33;;;;;;;1.58;1.38;;;18.80;44.10;;;;;;5065033;28;20372;-66
2021/09/21 12:16:02;;;;;;;1.50;1.20;;;18.80;44.30;;;;;;5062903;28;20707;-66
2021/09/21 12:18:31;;;;;;;1.00;1.00;;;18.60;44.50;;;;;;5068922;28;20196;-66
2021/09/21 12:21:01;;;;;;;1.00;1.00;;;18.60;44.70;;;;;;5068845;28;20208;-66
2021/09/21 12:23:31;;;;;;;0.93;0.88;;;18.50;44.60;;;;;;5070879;28;20232;-66
2021/09/21 12:25:59;;;;;;;1.27;1.17;;;18.60;44.60;;;;;;5062093;28;20441;-66
2021/09/21 12:28:29;;;;;;;1.23;1.17;;;18.50;44.40;;;;;;5057631;28;20597;-66
2021/09/21 12:30:56;;;;;;;2.33;1.13;;;18.40;44.30;;;;;;5068967;28;20705;-66
2021/09/21 12:33:24;;;;;;;1.30;1.20;;;18.20;44.70;;;;;;5066256;28;20266;-66
2021/09/21 12:35:52;;;;;;;1.00;0.90;;;18.00;45.00;;;;;;5062199;28;20200;-65
2021/09/21 12:38:23;;;;;;;1.67;1.20;;;18.00;45.30;;;;;;5064431;28;20209;-66
2021/09/21 12:40:53;;;;;;;0.90;0.90;;;18.00;45.50;;;;;;5075487;28;20664;-66
2021/09/21 12:43:22;;;;;;;1.80;1.70;;;17.90;45.70;;;;;;5062758;28;20288;-65
2021/09/21 12:45:51;;;;;;;4.97;4.32;;;17.90;46.00;;;;;;5069591;28;20205;-66
2021/09/21 12:48:23;;;;;;;3.03;2.83;;;17.90;46.70;;;;;;5081591;28;20531;-66
2021/09/21 12:50:54;;;;;;;5.10;2.72;;;18.00;47.50;;;;;;5068817;28;20213;-66
2021/09/21 12:53:23;;;;;;;2.17;1.98;;;18.00;47.60;;;;;;5071590;28;20208;-66
2021/09/21 12:55:56;;;;;;;1.83;1.73;;;18.00;47.40;;;;;;5066272;28;20725;-65
2021/09/21 12:58:25;;;;;;;1.77;1.50;;;18.00;47.40;;;;;;5059345;28;20723;-66